sensor_id;sensor_type;location;lat;lon;timestamp;pressure;altitude;pressure_sealevel;temperature;humidity
20160;BME280;50187;50.492;12.134;2022-09-12T00:01:14;97817.31;;;21.96;48.11
20160;BME280;50187;50.492;12.134;2022-09-12T00:04:00;97818.16;;;21.96;48.15
20160;BME280;50187;50.492;12.134;2022-09-12T00:06:45;97816.63;;;21.94;48.13
20160;BME280;50187;50.492;12.134;2022-09-12T00:09:30;97807.50;;;21.87;48.30
20160;BME280;50187;50.492;12.134;2022-09-12T00:12:15;97808.34;;;21.87;48.32
20160;BME280;50187;50.492;12.134;2022-09-12T00:15:01;97803.25;;;21.92;48.20
20160;BME280;50187;50.492;12.134;2022-09-12T00:17:46;97799.72;;;21.92;48.30
20160;BME280;50187;50.492;12.134;2022-09-12T00:20:31;97804.31;;;21.91;48.26
20160;BME280;50187;50.492;12.134;2022-09-12T00:23:16;97806.13;;;21.91;48.15
20160;BME280;50187;50.492;12.134;2022-09-12T00:26:04;97801.72;;;21.90;48.14
20160;BME280;50187;50.492;12.134;2022-09-12T00:28:50;97805.31;;;21.90;48.13
20160;BME280;50187;50.492;12.134;2022-09-12T00:31:35;97809.84;;;21.90;48.05
20160;BME280;50187;50.492;12.134;2022-09-12T00:34:20;97805.31;;;21.90;48.09
20160;BME280;50187;50.492;12.134;2022-09-12T00:37:05;97815.28;;;21.90;48.18
20160;BME280;50187;50.492;12.134;2022-09-12T00:39:50;97800.06;;;21.89;48.11
20160;BME280;50187;50.492;12.134;2022-09-12T00:42:35;97805.66;;;21.87;48.34
20160;BME280;50187;50.492;12.134;2022-09-12T00:45:28;97801.91;;;21.88;48.18
20160;BME280;50187;50.492;12.134;2022-09-12T00:48:30;97800.06;;;21.89;48.07
20160;BME280;50187;50.492;12.134;2022-09-12T00:51:17;97799.88;;;21.90;48.11
20160;BME280;50187;50.492;12.134;2022-09-12T00:54:07;97798.34;;;21.88;48.21
20160;BME280;50187;50.492;12.134;2022-09-12T00:56:59;97797.53;;;21.87;48.34
20160;BME280;50187;50.492;12.134;2022-09-12T00:59:58;97797.69;;;21.86;48.24
20160;BME280;50187;50.492;12.134;2022-09-12T01:02:48;97795.00;;;21.86;48.28
20160;BME280;50187;50.492;12.134;2022-09-12T01:05:36;97786.16;;;21.84;48.11
20160;BME280;50187;50.492;12.134;2022-09-12T01:08:24;97788.69;;;21.85;48.06
20160;BME280;50187;50.492;12.134;2022-09-12T01:11:10;97789.56;;;21.86;48.25
20160;BME280;50187;50.492;12.134;2022-09-12T01:13:57;97789.56;;;21.86;48.20
20160;BME280;50187;50.492;12.134;2022-09-12T01:16:43;97778.88;;;21.84;48.17
20160;BME280;50187;50.492;12.134;2022-09-12T01:26:06;97769.56;;;21.78;48.28
20160;BME280;50187;50.492;12.134;2022-09-12T01:35:51;97773.63;;;21.83;48.00
20160;BME280;50187;50.492;12.134;2022-09-12T01:38:53;97779.03;;;21.83;48.09
20160;BME280;50187;50.492;12.134;2022-09-12T01:42:14;97776.34;;;21.83;48.21
20160;BME280;50187;50.492;12.134;2022-09-12T01:45:11;97778.22;;;21.82;48.31
20160;BME280;50187;50.492;12.134;2022-09-12T01:51:08;97779.03;;;21.83;48.03
20160;BME280;50187;50.492;12.134;2022-09-12T01:54:18;97781.09;;;21.81;48.08
20160;BME280;50187;50.492;12.134;2022-09-12T01:57:10;97777.56;;;21.80;48.08
20160;BME280;50187;50.492;12.134;2022-09-12T02:00:03;97770.78;;;21.76;48.09
20160;BME280;50187;50.492;12.134;2022-09-12T02:03:06;97773.13;;;21.79;48.05
20160;BME280;50187;50.492;12.134;2022-09-12T02:06:05;97777.69;;;21.78;48.06
20160;BME280;50187;50.492;12.134;2022-09-12T02:08:55;97774.97;;;21.78;48.04
20160;BME280;50187;50.492;12.134;2022-09-12T02:11:43;97779.38;;;21.79;47.98
20160;BME280;50187;50.492;12.134;2022-09-12T02:14:32;97768.38;;;21.73;47.96
20160;BME280;50187;50.492;12.134;2022-09-12T02:17:24;97772.28;;;21.78;48.24
20160;BME280;50187;50.492;12.134;2022-09-12T02:20:17;97780.25;;;21.80;47.94
20160;BME280;50187;50.492;12.134;2022-09-12T02:23:30;97779.38;;;21.79;48.17
20160;BME280;50187;50.492;12.134;2022-09-12T02:26:22;97780.41;;;21.78;48.18
20160;BME280;50187;50.492;12.134;2022-09-12T02:29:10;97778.56;;;21.79;48.08
20160;BME280;50187;50.492;12.134;2022-09-12T02:32:04;97782.28;;;21.78;48.10
20160;BME280;50187;50.492;12.134;2022-09-12T02:35:04;97772.63;;;21.75;47.96
20160;BME280;50187;50.492;12.134;2022-09-12T02:37:56;97777.84;;;21.77;48.10
20160;BME280;50187;50.492;12.134;2022-09-12T02:40:44;97769.75;;;21.77;48.03
20160;BME280;50187;50.492;12.134;2022-09-12T02:43:30;97778.91;;;21.76;47.97
20160;BME280;50187;50.492;12.134;2022-09-12T02:46:21;97769.91;;;21.75;48.04
20160;BME280;50187;50.492;12.134;2022-09-12T02:49:07;97766.38;;;21.75;47.88
20160;BME280;50187;50.492;12.134;2022-09-12T02:51:54;97755.00;;;21.71;48.00
20160;BME280;50187;50.492;12.134;2022-09-12T02:54:39;97765.34;;;21.76;48.04
20160;BME280;50187;50.492;12.134;2022-09-12T02:57:25;97758.06;;;21.76;48.12
20160;BME280;50187;50.492;12.134;2022-09-12T03:00:11;97763.66;;;21.75;48.10
20160;BME280;50187;50.492;12.134;2022-09-12T03:03:23;97757.25;;;21.76;48.04
20160;BME280;50187;50.492;12.134;2022-09-12T03:15:18;97755.88;;;21.72;48.16
20160;BME280;50187;50.492;12.134;2022-09-12T03:27:38;97757.72;;;21.71;48.24
20160;BME280;50187;50.492;12.134;2022-09-12T03:30:26;97758.59;;;21.72;48.20
20160;BME280;50187;50.492;12.134;2022-09-12T03:33:21;97766.72;;;21.72;48.04
20160;BME280;50187;50.492;12.134;2022-09-12T03:36:15;97756.88;;;21.71;47.97
20160;BME280;50187;50.492;12.134;2022-09-12T03:39:01;97758.75;;;21.70;48.15
20160;BME280;50187;50.492;12.134;2022-09-12T03:41:46;97759.59;;;21.71;48.04
20160;BME280;50187;50.492;12.134;2022-09-12T03:44:31;97772.28;;;21.70;48.05
20160;BME280;50187;50.492;12.134;2022-09-12T03:47:15;97775.84;;;21.71;48.16
20160;BME280;50187;50.492;12.134;2022-09-12T03:50:01;97764.00;;;21.72;48.15
20160;BME280;50187;50.492;12.134;2022-09-12T03:52:46;97766.88;;;21.70;48.10
20160;BME280;50187;50.492;12.134;2022-09-12T03:55:31;97764.16;;;21.70;48.07
20160;BME280;50187;50.492;12.134;2022-09-12T03:58:16;97757.88;;;21.70;48.12
20160;BME280;50187;50.492;12.134;2022-09-12T04:01:09;97760.44;;;21.71;48.12
20160;BME280;50187;50.492;12.134;2022-09-12T04:03:56;97757.72;;;21.71;48.11
20160;BME280;50187;50.492;12.134;2022-09-12T04:06:41;97760.59;;;21.70;48.14
20160;BME280;50187;50.492;12.134;2022-09-12T04:09:26;97759.59;;;21.71;47.89
20160;BME280;50187;50.492;12.134;2022-09-12T04:12:11;97755.19;;;21.70;47.95
20160;BME280;50187;50.492;12.134;2022-09-12T04:14:57;97751.13;;;21.66;48.09
20160;BME280;50187;50.492;12.134;2022-09-12T04:17:42;97756.22;;;21.69;47.89
20160;BME280;50187;50.492;12.134;2022-09-12T04:20:27;97758.75;;;21.70;48.08
20160;BME280;50187;50.492;12.134;2022-09-12T04:23:12;97757.06;;;21.69;47.97
20160;BME280;50187;50.492;12.134;2022-09-12T04:25:59;97751.63;;;21.69;48.10
20160;BME280;50187;50.492;12.134;2022-09-12T04:28:45;97765.34;;;21.68;48.04
20160;BME280;50187;50.492;12.134;2022-09-12T04:31:30;97756.34;;;21.67;47.87
20160;BME280;50187;50.492;12.134;2022-09-12T04:34:15;97757.06;;;21.69;47.96
20160;BME280;50187;50.492;12.134;2022-09-12T04:37:00;97755.53;;;21.67;48.11
20160;BME280;50187;50.492;12.134;2022-09-12T04:39:45;97759.25;;;21.66;47.98
20160;BME280;50187;50.492;12.134;2022-09-12T04:42:32;97763.66;;;21.67;47.85
20160;BME280;50187;50.492;12.134;2022-09-12T04:45:17;97764.47;;;21.67;48.05
20160;BME280;50187;50.492;12.134;2022-09-12T04:48:03;97764.66;;;21.66;47.96
20160;BME280;50187;50.492;12.134;2022-09-12T04:50:48;97761.94;;;21.66;48.14
20160;BME280;50187;50.492;12.134;2022-09-12T04:53:34;97762.81;;;21.66;48.10
20160;BME280;50187;50.492;12.134;2022-09-12T04:56:20;97760.28;;;21.65;48.17
20160;BME280;50187;50.492;12.134;2022-09-12T04:59:06;97759.56;;;21.63;47.96
20160;BME280;50187;50.492;12.134;2022-09-12T05:01:51;97759.56;;;21.63;47.91
20160;BME280;50187;50.492;12.134;2022-09-12T05:04:36;97761.44;;;21.62;48.02
20160;BME280;50187;50.492;12.134;2022-09-12T05:07:21;97760.41;;;21.63;47.83
20160;BME280;50187;50.492;12.134;2022-09-12T05:10:07;97766.69;;;21.64;47.89
20160;BME280;50187;50.492;12.134;2022-09-12T05:12:53;97769.41;;;21.64;47.88
20160;BME280;50187;50.492;12.134;2022-09-12T05:15:38;97773.94;;;21.63;47.87
20160;BME280;50187;50.492;12.134;2022-09-12T05:18:23;97773.13;;;21.63;48.03
20160;BME280;50187;50.492;12.134;2022-09-12T05:21:13;97777.69;;;21.62;48.06
20160;BME280;50187;50.492;12.134;2022-09-12T05:23:58;97768.69;;;21.61;47.96
20160;BME280;50187;50.492;12.134;2022-09-12T05:26:43;97782.06;;;21.63;48.06
20160;BME280;50187;50.492;12.134;2022-09-12T05:29:28;97777.53;;;21.64;48.08
20160;BME280;50187;50.492;12.134;2022-09-12T05:32:13;97771.41;;;21.61;47.79
20160;BME280;50187;50.492;12.134;2022-09-12T05:34:58;97775.81;;;21.63;48.08
20160;BME280;50187;50.492;12.134;2022-09-12T05:37:44;97788.53;;;21.62;48.06
20160;BME280;50187;50.492;12.134;2022-09-12T05:40:29;97782.94;;;21.64;48.05
20160;BME280;50187;50.492;12.134;2022-09-12T05:43:14;97785.81;;;21.62;48.09
20160;BME280;50187;50.492;12.134;2022-09-12T05:46:00;97788.53;;;21.62;47.92
20160;BME280;50187;50.492;12.134;2022-09-12T05:48:47;97799.50;;;21.60;48.09
20160;BME280;50187;50.492;12.134;2022-09-12T05:51:39;97796.63;;;21.62;48.09
20160;BME280;50187;50.492;12.134;2022-09-12T05:54:25;97790.53;;;21.60;48.18
20160;BME280;50187;50.492;12.134;2022-09-12T05:57:17;97803.56;;;21.56;48.12
20160;BME280;50187;50.492;12.134;2022-09-12T06:00:03;97796.28;;;21.57;48.07
20160;BME280;50187;50.492;12.134;2022-09-12T06:02:55;97804.22;;;21.58;48.19
20160;BME280;50187;50.492;12.134;2022-09-12T06:05:41;97803.22;;;21.59;48.09
20160;BME280;50187;50.492;12.134;2022-09-12T06:08:26;97793.94;;;21.62;48.04
20160;BME280;50187;50.492;12.134;2022-09-12T06:11:14;97801.34;;;21.60;48.06
20160;BME280;50187;50.492;12.134;2022-09-12T06:14:00;97800.53;;;21.59;48.22
20160;BME280;50187;50.492;12.134;2022-09-12T06:16:46;97798.47;;;21.61;48.13
20160;BME280;50187;50.492;12.134;2022-09-12T06:19:32;97800.19;;;21.63;48.24
20160;BME280;50187;50.492;12.134;2022-09-12T06:22:18;97801.88;;;21.64;47.98
20160;BME280;50187;50.492;12.134;2022-09-12T06:25:04;97801.53;;;21.67;48.15
20160;BME280;50187;50.492;12.134;2022-09-12T06:27:50;97798.66;;;21.68;47.93
20160;BME280;50187;50.492;12.134;2022-09-12T06:30:35;97796.84;;;21.69;47.96
20160;BME280;50187;50.492;12.134;2022-09-12T06:33:20;97801.22;;;21.70;47.84
20160;BME280;50187;50.492;12.134;2022-09-12T06:36:08;97805.78;;;21.69;47.82
20160;BME280;50187;50.492;12.134;2022-09-12T06:38:58;97827.44;;;21.69;47.97
20160;BME280;50187;50.492;12.134;2022-09-12T06:41:45;97802.91;;;21.71;47.83
20160;BME280;50187;50.492;12.134;2022-09-12T06:44:31;97803.75;;;21.71;47.78
20160;BME280;50187;50.492;12.134;2022-09-12T06:47:16;97806.28;;;21.73;47.95
20160;BME280;50187;50.492;12.134;2022-09-12T06:50:01;97801.72;;;21.73;47.81
20160;BME280;50187;50.492;12.134;2022-09-12T06:52:48;97806.16;;;21.74;47.64
20160;BME280;50187;50.492;12.134;2022-09-12T06:55:33;97809.69;;;21.75;47.72
20160;BME280;50187;50.492;12.134;2022-09-12T06:58:18;97805.28;;;21.74;47.71
20160;BME280;50187;50.492;12.134;2022-09-12T07:01:06;97808.69;;;21.76;47.90
20160;BME280;50187;50.492;12.134;2022-09-12T07:03:57;97805.97;;;21.76;47.94
20160;BME280;50187;50.492;12.134;2022-09-12T07:06:43;97813.94;;;21.77;47.62
20160;BME280;50187;50.492;12.134;2022-09-12T07:09:28;97813.06;;;21.77;47.74
20160;BME280;50187;50.492;12.134;2022-09-12T07:12:14;97818.16;;;21.80;47.83
20160;BME280;50187;50.492;12.134;2022-09-12T07:14:59;97819.34;;;21.77;47.77
20160;BME280;50187;50.492;12.134;2022-09-12T07:17:45;97813.94;;;21.77;47.67
20160;BME280;50187;50.492;12.134;2022-09-12T07:20:30;97815.59;;;21.78;47.44
20160;BME280;50187;50.492;12.134;2022-09-12T07:23:17;97820.34;;;21.76;47.67
20160;BME280;50187;50.492;12.134;2022-09-12T07:26:02;97823.88;;;21.77;47.43
20160;BME280;50187;50.492;12.134;2022-09-12T07:28:51;97821.00;;;21.78;47.77
20160;BME280;50187;50.492;12.134;2022-09-12T07:31:38;97819.34;;;21.77;47.52
20160;BME280;50187;50.492;12.134;2022-09-12T07:34:24;97812.06;;;21.78;47.72
20160;BME280;50187;50.492;12.134;2022-09-12T07:37:09;97814.75;;;21.78;47.44
20160;BME280;50187;50.492;12.134;2022-09-12T07:39:54;97812.06;;;21.78;47.57
20160;BME280;50187;50.492;12.134;2022-09-12T07:42:40;97799.34;;;21.78;47.50
20160;BME280;50187;50.492;12.134;2022-09-12T07:45:25;97809.34;;;21.78;47.54
20160;BME280;50187;50.492;12.134;2022-09-12T07:48:11;97808.34;;;21.79;47.56
20160;BME280;50187;50.492;12.134;2022-09-12T07:50:57;97801.91;;;21.80;47.44
20160;BME280;50187;50.492;12.134;2022-09-12T07:53:44;97801.06;;;21.79;47.51
20160;BME280;50187;50.492;12.134;2022-09-12T07:56:29;97797.84;;;21.76;47.80
20160;BME280;50187;50.492;12.134;2022-09-12T07:59:19;97810.19;;;21.78;47.67
20160;BME280;50187;50.492;12.134;2022-09-12T08:02:25;97801.06;;;21.79;47.50
20160;BME280;50187;50.492;12.134;2022-09-12T08:05:10;97797.69;;;21.77;47.63
20160;BME280;50187;50.492;12.134;2022-09-12T08:07:55;97801.91;;;21.80;47.62
20160;BME280;50187;50.492;12.134;2022-09-12T08:10:41;97809.88;;;21.82;47.53
20160;BME280;50187;50.492;12.134;2022-09-12T08:13:28;97807.00;;;21.83;47.72
20160;BME280;50187;50.492;12.134;2022-09-12T08:16:18;97811.53;;;21.83;47.54
20160;BME280;50187;50.492;12.134;2022-09-12T08:19:05;97808.66;;;21.84;47.52
20160;BME280;50187;50.492;12.134;2022-09-12T08:21:50;97802.25;;;21.85;47.69
20160;BME280;50187;50.492;12.134;2022-09-12T08:24:35;97802.06;;;21.87;47.53
20160;BME280;50187;50.492;12.134;2022-09-12T08:27:20;97803.13;;;21.86;47.39
20160;BME280;50187;50.492;12.134;2022-09-12T08:30:06;97803.94;;;21.86;47.36
20160;BME280;50187;50.492;12.134;2022-09-12T08:32:51;97802.94;;;21.87;47.55
20160;BME280;50187;50.492;12.134;2022-09-12T08:35:36;97803.78;;;21.88;47.63
20160;BME280;50187;50.492;12.134;2022-09-12T08:38:21;97800.06;;;21.89;47.58
20160;BME280;50187;50.492;12.134;2022-09-12T08:41:32;97801.72;;;21.90;47.38
20160;BME280;50187;50.492;12.134;2022-09-12T08:44:37;97805.97;;;21.92;47.43
20160;BME280;50187;50.492;12.134;2022-09-12T08:47:31;97793.13;;;21.94;47.41
20160;BME280;50187;50.492;12.134;2022-09-12T08:50:19;97802.59;;;21.99;47.53
20160;BME280;50187;50.492;12.134;2022-09-12T08:53:15;97790.59;;;22.01;47.28
20160;BME280;50187;50.492;12.134;2022-09-12T08:56:04;97786.69;;;22.04;47.29
20160;BME280;50187;50.492;12.134;2022-09-12T08:58:50;97788.03;;;22.16;47.14
20160;BME280;50187;50.492;12.134;2022-09-12T09:01:43;97805.13;;;22.25;47.11
20160;BME280;50187;50.492;12.134;2022-09-12T09:07:48;97785.81;;;22.44;46.60
20160;BME280;50187;50.492;12.134;2022-09-12T09:17:12;97784.94;;;22.69;46.09
20160;BME280;50187;50.492;12.134;2022-09-12T09:23:28;97780.47;;;22.84;45.92
20160;BME280;50187;50.492;12.134;2022-09-12T09:29:09;97777.06;;;22.98;45.74
20160;BME280;50187;50.492;12.134;2022-09-12T09:31:59;97776.34;;;23.05;45.42
20160;BME280;50187;50.492;12.134;2022-09-12T09:34:47;97770.19;;;23.11;45.46
20160;BME280;50187;50.492;12.134;2022-09-12T09:37:41;97767.00;;;23.15;45.18
20160;BME280;50187;50.492;12.134;2022-09-12T09:40:44;97765.78;;;23.18;45.19
20160;BME280;50187;50.492;12.134;2022-09-12T09:43:36;97769.13;;;23.28;45.17
20160;BME280;50187;50.492;12.134;2022-09-12T09:46:21;97765.88;;;23.33;45.02
20160;BME280;50187;50.492;12.134;2022-09-12T09:49:11;97764.50;;;23.37;44.79
20160;BME280;50187;50.492;12.134;2022-09-12T09:51:58;97759.53;;;23.41;44.91
20160;BME280;50187;50.492;12.134;2022-09-12T09:54:55;97754.63;;;23.44;44.81
20160;BME280;50187;50.492;12.134;2022-09-12T09:57:44;97755.13;;;23.48;44.76
20160;BME280;50187;50.492;12.134;2022-09-12T10:00:32;97753.59;;;23.45;44.58
20160;BME280;50187;50.492;12.134;2022-09-12T10:03:25;97757.34;;;23.44;44.54
20160;BME280;50187;50.492;12.134;2022-09-12T10:09:21;97745.00;;;23.33;44.81
20160;BME280;50187;50.492;12.134;2022-09-12T10:12:25;97734.22;;;23.25;44.89
20160;BME280;50187;50.492;12.134;2022-09-12T10:18:02;97730.78;;;23.31;44.97
20160;BME280;50187;50.492;12.134;2022-09-12T10:20:48;97743.81;;;23.36;44.90
20160;BME280;50187;50.492;12.134;2022-09-12T10:23:34;97719.75;;;23.33;45.05
20160;BME280;50187;50.492;12.134;2022-09-12T10:26:21;97733.44;;;23.40;44.91
20160;BME280;50187;50.492;12.134;2022-09-12T10:29:23;97728.00;;;23.40;44.85
20160;BME280;50187;50.492;12.134;2022-09-12T10:32:09;97722.59;;;23.40;44.97
20160;BME280;50187;50.492;12.134;2022-09-12T10:34:59;97728.72;;;23.33;44.81
20160;BME280;50187;50.492;12.134;2022-09-12T10:38:03;97727.34;;;23.38;44.96
20160;BME280;50187;50.492;12.134;2022-09-12T10:41:03;97724.16;;;23.34;45.10
20160;BME280;50187;50.492;12.134;2022-09-12T10:43:49;97722.59;;;23.40;44.97
20160;BME280;50187;50.492;12.134;2022-09-12T10:46:34;97720.88;;;23.39;45.00
20160;BME280;50187;50.492;12.134;2022-09-12T10:52:20;97724.56;;;23.46;44.89
20160;BME280;50187;50.492;12.134;2022-09-12T10:55:13;97718.13;;;23.47;44.85
20160;BME280;50187;50.492;12.134;2022-09-12T10:58:26;97712.63;;;23.55;44.62
20160;BME280;50187;50.492;12.134;2022-09-12T11:07:36;97712.22;;;23.66;44.48
20160;BME280;50187;50.492;12.134;2022-09-12T11:10:48;97713.41;;;23.64;44.31
20160;BME280;50187;50.492;12.134;2022-09-12T11:17:05;97706.03;;;23.73;44.34
20160;BME280;50187;50.492;12.134;2022-09-12T11:20:10;97706.53;;;23.76;44.25
20160;BME280;50187;50.492;12.134;2022-09-12T11:26:00;97699.53;;;23.82;44.11
20160;BME280;50187;50.492;12.134;2022-09-12T11:37:47;97694.72;;;23.92;44.09
20160;BME280;50187;50.492;12.134;2022-09-12T11:40:54;97689.09;;;23.94;44.20
20160;BME280;50187;50.492;12.134;2022-09-12T11:43:43;97689.91;;;23.94;44.13
20160;BME280;50187;50.492;12.134;2022-09-12T11:46:38;97695.34;;;23.94;43.97
20160;BME280;50187;50.492;12.134;2022-09-12T11:49:40;97688.06;;;23.95;43.90
20160;BME280;50187;50.492;12.134;2022-09-12T11:52:34;97684.84;;;23.91;44.08
20160;BME280;50187;50.492;12.134;2022-09-12T11:55:24;97691.81;;;23.94;43.95
20160;BME280;50187;50.492;12.134;2022-09-12T11:58:12;97686.38;;;23.94;44.15
20160;BME280;50187;50.492;12.134;2022-09-12T12:03:52;97682.31;;;23.90;44.35
20160;BME280;50187;50.492;12.134;2022-09-12T12:07:04;97686.94;;;23.89;44.16
20160;BME280;50187;50.492;12.134;2022-09-12T12:09:51;97686.94;;;23.89;44.32
20160;BME280;50187;50.492;12.134;2022-09-12T12:12:37;97687.47;;;23.84;44.24
20160;BME280;50187;50.492;12.134;2022-09-12T12:15:23;97681.16;;;23.84;44.34
20160;BME280;50187;50.492;12.134;2022-09-12T12:18:22;97677.44;;;23.85;44.38
20160;BME280;50187;50.492;12.134;2022-09-12T12:21:19;97679.47;;;23.83;44.28
20160;BME280;50187;50.492;12.134;2022-09-12T12:27:02;97667.47;;;23.77;44.63
20160;BME280;50187;50.492;12.134;2022-09-12T12:29:47;97663.25;;;23.75;44.62
20160;BME280;50187;50.492;12.134;2022-09-12T12:32:32;97660.38;;;23.76;44.44
20160;BME280;50187;50.492;12.134;2022-09-12T12:38:41;97653.13;;;23.69;44.72
20160;BME280;50187;50.492;12.134;2022-09-12T12:50:25;97655.91;;;23.60;44.60
20160;BME280;50187;50.492;12.134;2022-09-12T12:53:21;97650.28;;;23.62;44.62
20160;BME280;50187;50.492;12.134;2022-09-12T12:56:25;97646.72;;;23.61;44.48
20160;BME280;50187;50.492;12.134;2022-09-12T12:59:16;97636.97;;;23.52;44.72
20160;BME280;50187;50.492;12.134;2022-09-12T13:02:03;97641.38;;;23.53;44.47
20160;BME280;50187;50.492;12.134;2022-09-12T13:04:50;97642.41;;;23.52;44.78
20160;BME280;50187;50.492;12.134;2022-09-12T13:07:37;97633.78;;;23.48;44.70
20160;BME280;50187;50.492;12.134;2022-09-12T13:10:26;97627.84;;;23.45;44.64
20160;BME280;50187;50.492;12.134;2022-09-12T13:13:23;97627.84;;;23.45;44.73
20160;BME280;50187;50.492;12.134;2022-09-12T13:16:10;97621.09;;;23.41;44.94
20160;BME280;50187;50.492;12.134;2022-09-12T13:18:56;97623.16;;;23.39;44.87
20160;BME280;50187;50.492;12.134;2022-09-12T13:22:06;97617.91;;;23.37;44.81
20160;BME280;50187;50.492;12.134;2022-09-12T13:24:51;97614.38;;;23.37;44.94
20160;BME280;50187;50.492;12.134;2022-09-12T13:27:36;97611.16;;;23.33;44.91
20160;BME280;50187;50.492;12.134;2022-09-12T13:30:22;97622.75;;;23.27;44.96
20160;BME280;50187;50.492;12.134;2022-09-12T13:33:21;97608.81;;;23.30;44.87
20160;BME280;50187;50.492;12.134;2022-09-12T13:39:28;97606.66;;;23.25;44.97
20160;BME280;50187;50.492;12.134;2022-09-12T13:42:47;97603.44;;;23.22;45.30
20160;BME280;50187;50.492;12.134;2022-09-12T13:45:36;97603.63;;;23.20;45.32
20160;BME280;50187;50.492;12.134;2022-09-12T13:48:23;97603.81;;;23.19;45.38
20160;BME280;50187;50.492;12.134;2022-09-12T13:51:21;97593.34;;;23.15;45.24
20160;BME280;50187;50.492;12.134;2022-09-12T13:54:15;97599.78;;;23.14;45.38
20160;BME280;50187;50.492;12.134;2022-09-12T13:57:35;97606.41;;;23.12;45.16
20160;BME280;50187;50.492;12.134;2022-09-12T14:00:25;97598.59;;;23.09;45.30
20160;BME280;50187;50.492;12.134;2022-09-12T14:03:33;97588.75;;;23.08;45.31
20160;BME280;50187;50.492;12.134;2022-09-12T14:06:51;97591.47;;;23.08;45.54
20160;BME280;50187;50.492;12.134;2022-09-12T14:09:39;97593.72;;;23.04;45.69
20160;BME280;50187;50.492;12.134;2022-09-12T14:12:27;97595.13;;;23.00;45.69
20160;BME280;50187;50.492;12.134;2022-09-12T14:15:19;97588.16;;;22.97;45.36
20160;BME280;50187;50.492;12.134;2022-09-12T14:18:21;97580.41;;;22.94;45.49
20160;BME280;50187;50.492;12.134;2022-09-12T14:21:09;97578.88;;;22.92;45.27
20160;BME280;50187;50.492;12.134;2022-09-12T14:23:57;97577.56;;;22.88;44.64
20160;BME280;50187;50.492;12.134;2022-09-12T14:26:44;97568.28;;;22.82;44.16
20160;BME280;50187;50.492;12.134;2022-09-12T14:29:30;97564.41;;;22.76;44.29
20160;BME280;50187;50.492;12.134;2022-09-12T14:32:24;97567.97;;;22.77;44.14
20160;BME280;50187;50.492;12.134;2022-09-12T14:37:55;97563.91;;;22.73;43.75
20160;BME280;50187;50.492;12.134;2022-09-12T14:40:42;97560.19;;;22.74;43.79
20160;BME280;50187;50.492;12.134;2022-09-12T14:43:30;97560.72;;;22.69;43.86
20160;BME280;50187;50.492;12.134;2022-09-12T14:46:21;97538.13;;;22.54;43.96
20160;BME280;50187;50.492;12.134;2022-09-12T14:49:31;97552.47;;;22.62;44.02
20160;BME280;50187;50.492;12.134;2022-09-12T14:52:30;97558.25;;;22.59;44.05
20160;BME280;50187;50.492;12.134;2022-09-12T14:55:18;97561.59;;;22.61;43.96
20160;BME280;50187;50.492;12.134;2022-09-12T15:03:53;97559.63;;;22.55;43.80
20160;BME280;50187;50.492;12.134;2022-09-12T15:06:39;97556.56;;;22.58;43.91
20160;BME280;50187;50.492;12.134;2022-09-12T15:09:25;97554.84;;;22.57;43.99
20160;BME280;50187;50.492;12.134;2022-09-12T15:12:10;97544.38;;;22.54;43.84
20160;BME280;50187;50.492;12.134;2022-09-12T15:14:59;97550.81;;;22.53;43.93
20160;BME280;50187;50.492;12.134;2022-09-12T15:17:47;97539.31;;;22.51;43.66
20160;BME280;50187;50.492;12.134;2022-09-12T15:20:35;97543.72;;;22.52;43.83
20160;BME280;50187;50.492;12.134;2022-09-12T15:23:34;97542.22;;;22.50;43.82
20160;BME280;50187;50.492;12.134;2022-09-12T15:26:23;97536.41;;;22.53;43.95
20160;BME280;50187;50.492;12.134;2022-09-12T15:29:11;97538.13;;;22.54;44.13
20160;BME280;50187;50.492;12.134;2022-09-12T15:31:56;97541.00;;;22.52;44.21
20160;BME280;50187;50.492;12.134;2022-09-12T15:34:41;97539.31;;;22.51;44.21
20160;BME280;50187;50.492;12.134;2022-09-12T15:37:26;97541.84;;;22.53;44.15
20160;BME280;50187;50.492;12.134;2022-09-12T15:40:12;97529.50;;;22.50;44.41
20160;BME280;50187;50.492;12.134;2022-09-12T15:42:58;97536.59;;;22.51;44.43
20160;BME280;50187;50.492;12.134;2022-09-12T15:45:44;97530.50;;;22.49;44.31
20160;BME280;50187;50.492;12.134;2022-09-12T15:48:31;97542.22;;;22.50;44.36
20160;BME280;50187;50.492;12.134;2022-09-12T15:51:19;97526.50;;;22.45;44.54
20160;BME280;50187;50.492;12.134;2022-09-12T15:54:05;97530.88;;;22.46;44.55
20160;BME280;50187;50.492;12.134;2022-09-12T15:56:50;97529.00;;;22.46;44.55
20160;BME280;50187;50.492;12.134;2022-09-12T15:59:35;97528.50;;;22.43;44.74
20160;BME280;50187;50.492;12.134;2022-09-12T16:02:20;97530.03;;;22.45;44.57
20160;BME280;50187;50.492;12.134;2022-09-12T16:05:12;97530.03;;;22.45;44.60
20160;BME280;50187;50.492;12.134;2022-09-12T16:07:58;97527.88;;;22.41;44.83
20160;BME280;50187;50.492;12.134;2022-09-12T16:10:53;97527.50;;;22.44;44.88
20160;BME280;50187;50.492;12.134;2022-09-12T16:13:39;97533.94;;;22.43;44.96
20160;BME280;50187;50.492;12.134;2022-09-12T16:16:24;97521.41;;;22.42;44.80
20160;BME280;50187;50.492;12.134;2022-09-12T16:19:10;97521.41;;;22.42;45.10
20160;BME280;50187;50.492;12.134;2022-09-12T16:21:55;97516.16;;;22.40;45.10
20160;BME280;50187;50.492;12.134;2022-09-12T16:24:40;97518.03;;;22.40;44.94
20160;BME280;50187;50.492;12.134;2022-09-12T16:27:25;97510.91;;;22.39;45.15
20160;BME280;50187;50.492;12.134;2022-09-12T16:30:10;97509.22;;;22.38;45.24
20160;BME280;50187;50.492;12.134;2022-09-12T16:32:57;97500.44;;;22.36;45.26
20160;BME280;50187;50.492;12.134;2022-09-12T16:35:42;97502.31;;;22.35;45.07
20160;BME280;50187;50.492;12.134;2022-09-12T16:38:27;97504.84;;;22.37;45.37